Aviation Digital Data Service (ADDS)

Output produced by METARs form (1424 UTC 22 April 2021)
found at http://www.aviationweather.gov/metar/data/
 
KRNH 221415Z AUTO 26008KT 10SM CLR 07/M04 A2997 RMK AO2 T00711040
KRNH 221355Z AUTO 24007KT 10SM CLR 06/M04 A2997 RMK AO2 T00611040
KRNH 221335Z AUTO 22007KT 10SM CLR 05/M03 A2997 RMK AO2 T00521035
KRNH 221120Z 2212/2312 23006KT P6SM SKC 
     FM221800 24011G16KT P6SM SCT250 
     FM230000 23007KT P6SM SKC 
     FM231100 19005KT P6SM -SHRA OVC050
       
KMSP 221353Z 27006KT 10SM CLR 07/M04 A3000 RMK AO2 SLP164 T00721044
KMSP 221359Z 2214/2318 25007G12KT P6SM SKC 
     FM221600 24008G18KT P6SM SKC 
     FM230300 21008KT P6SM BKN180 
     FM230900 20006KT P6SM -SHRA SCT035 OVC060 
     FM231100 18006KT P6SM -SHRA BKN025 
     FM231300 16007KT P6SM BKN015